createdAt,value
2022-08-22T00:01:20.535Z,25.66
2022-08-22T00:02:44.826Z,28.61
2022-08-22T00:02:52.898Z,28.31
2022-08-22T00:02:57.786Z,24.91
2022-08-22T00:04:14.252Z,25.90
2022-08-22T00:06:48.961Z,25.11
2022-08-22T00:09:29.447Z,24.88
2022-08-22T00:12:03.958Z,24.57
2022-08-22T00:15:02.155Z,24.41
2022-08-22T00:17:55.877Z,24.37
2022-08-22T00:20:54.537Z,24.40
2022-08-22T00:23:59.859Z,24.48
2022-08-22T00:26:45.479Z,24.51
2022-08-22T00:29:47.635Z,24.33
2022-08-22T00:32:35.351Z,24.26
2022-08-22T00:35:14.972Z,24.28
2022-08-22T00:37:46.058Z,25.36
2022-08-22T00:40:38.726Z,24.81
2022-08-22T00:43:30.113Z,24.41
2022-08-22T00:46:26.574Z,24.14
2022-08-22T00:48:56.050Z,23.97
2022-08-22T00:51:40.192Z,23.89
2022-08-22T00:54:34.332Z,23.93
2022-08-22T00:57:06.615Z,23.52
2022-08-22T00:59:52.040Z,23.18
2022-08-22T01:02:40.875Z,23.35
2022-08-22T01:05:22.628Z,23.19
2022-08-22T01:07:52.146Z,23.24
2022-08-22T01:10:33.390Z,22.83
2022-08-22T01:13:12.876Z,22.95
2022-08-22T01:15:42.527Z,22.84
2022-08-22T01:18:19.950Z,22.77
2022-08-22T01:21:46.583Z,23.09
2022-08-22T01:24:24.216Z,22.69
2022-08-22T01:26:56.900Z,23.02
2022-08-22T01:29:55.182Z,22.81
2022-08-22T01:32:47.349Z,22.75
2022-08-22T01:35:13.819Z,22.56
2022-08-22T01:38:04.978Z,23.80
2022-08-22T01:40:53.334Z,23.38
2022-08-22T01:44:00.728Z,23.09
2022-08-22T01:46:42.956Z,23.33
2022-08-22T01:49:18.526Z,24.48
2022-08-22T01:52:18.752Z,23.57
2022-08-22T01:55:03.154Z,22.94
2022-08-22T01:57:29.768Z,22.88
2022-08-22T02:00:08.663Z,22.95
2022-08-22T02:02:41.254Z,22.87
2022-08-22T02:05:17.211Z,22.86
2022-08-22T02:08:00.493Z,22.90
2022-08-22T02:11:04.410Z,22.95
2022-08-22T02:13:55.423Z,22.79
2022-08-22T02:16:31.135Z,22.73
2022-08-22T02:19:20.044Z,22.64
2022-08-22T02:21:53.502Z,22.62
2022-08-22T02:24:32.899Z,22.52
2022-08-22T02:27:17.555Z,22.54
2022-08-22T02:29:57.862Z,22.65
2022-08-22T02:32:36.484Z,22.54
2022-08-22T02:35:06.565Z,22.47
2022-08-22T02:37:47.007Z,22.64
2022-08-22T02:40:28.131Z,22.68
2022-08-22T02:43:18.060Z,22.55
2022-08-22T02:45:49.437Z,22.66
2022-08-22T02:48:34.076Z,22.64
2022-08-22T02:51:17.159Z,22.35
2022-08-22T02:53:52.651Z,22.35
2022-08-22T02:56:25.052Z,22.48
2022-08-22T02:58:59.999Z,22.45
2022-08-22T03:01:33.278Z,22.49
2022-08-22T03:04:32.246Z,22.46
2022-08-22T03:07:01.626Z,22.43
2022-08-22T03:09:37.540Z,22.52
2022-08-22T03:12:38.452Z,22.54
2022-08-22T03:15:13.275Z,23.28
2022-08-22T03:17:47.621Z,23.23
2022-08-22T03:20:35.434Z,23.47
2022-08-22T03:23:13.186Z,23.70
2022-08-22T03:25:50.748Z,24.13
2022-08-22T03:28:22.396Z,23.63
2022-08-22T03:30:57.840Z,23.15
2022-08-22T03:33:27.522Z,22.90
2022-08-22T03:36:06.544Z,22.67
2022-08-22T03:38:33.056Z,22.45
2022-08-22T03:41:17.976Z,22.43
2022-08-22T03:44:04.538Z,22.38
2022-08-22T03:46:57.474Z,22.40
2022-08-22T03:49:52.988Z,22.42
2022-08-22T03:53:10.446Z,22.40
2022-08-22T03:55:51.696Z,22.37
2022-08-22T03:58:33.574Z,22.46
2022-08-22T04:01:19.560Z,22.48
2022-08-22T04:04:19.117Z,22.42
2022-08-22T04:06:59.382Z,22.43
2022-08-22T04:10:07.971Z,22.52
2022-08-22T04:12:59.374Z,22.49
2022-08-22T04:16:12.522Z,22.41
2022-08-22T04:19:09.480Z,22.46
2022-08-22T04:21:56.191Z,22.38
2022-08-22T04:24:44.091Z,22.43
2022-08-22T04:27:31.439Z,22.44
2022-08-22T04:30:16.161Z,22.50
2022-08-22T04:32:57.025Z,22.63
2022-08-22T04:35:29.560Z,22.74
2022-08-22T04:38:04.292Z,22.74
2022-08-22T04:40:42.756Z,22.51
2022-08-22T04:43:17.238Z,22.42
2022-08-22T04:45:48.707Z,22.65
2022-08-22T04:48:15.944Z,22.95
2022-08-22T04:50:53.224Z,22.66
2022-08-22T04:53:42.216Z,22.68
2022-08-22T04:56:33.115Z,22.53
2022-08-22T04:59:17.150Z,22.35
2022-08-22T05:02:07.071Z,22.41
2022-08-22T05:04:43.315Z,22.36
2022-08-22T05:07:18.339Z,22.25
2022-08-22T05:09:56.449Z,22.30
2022-08-22T05:12:32.886Z,22.32
2022-08-22T05:15:22.890Z,22.49
2022-08-22T05:17:52.774Z,22.61
2022-08-22T05:20:23.251Z,22.82
2022-08-22T05:23:00.259Z,22.94
2022-08-22T05:25:31.306Z,22.93
2022-08-22T05:28:23.902Z,23.09
2022-08-22T05:30:51.275Z,23.23
2022-08-22T05:33:39.186Z,23.42
2022-08-22T05:36:33.116Z,23.46
2022-08-22T05:39:21.568Z,23.38
2022-08-22T05:41:52.468Z,23.64
2022-08-22T05:44:27.943Z,23.87
2022-08-22T05:47:05.421Z,23.87
2022-08-22T05:49:31.930Z,23.67
2022-08-22T05:52:22.986Z,23.73
2022-08-22T05:55:05.094Z,23.84
2022-08-22T05:57:37.005Z,24.05
2022-08-22T06:00:11.276Z,24.83
2022-08-22T06:03:06.071Z,25.03
2022-08-22T06:05:39.034Z,24.68
2022-08-22T06:08:21.253Z,25.22
2022-08-22T06:10:53.010Z,25.04
2022-08-22T06:13:30.025Z,24.72
2022-08-22T06:16:21.379Z,25.25
2022-08-22T06:18:50.560Z,25.93
2022-08-22T06:21:38.475Z,26.23
2022-08-22T06:24:12.990Z,25.99
2022-08-22T06:26:46.073Z,25.53
2022-08-22T06:29:22.130Z,25.88
2022-08-22T06:31:49.067Z,25.74
2022-08-22T06:34:23.595Z,25.72
2022-08-22T06:36:52.539Z,25.12
2022-08-22T06:39:24.208Z,25.29
2022-08-22T06:42:05.903Z,26.31
2022-08-22T06:44:35.463Z,26.49
2022-08-22T06:47:08.340Z,26.67
2022-08-22T06:49:37.622Z,26.45
2022-08-22T06:52:14.835Z,26.06
2022-08-22T06:54:46.597Z,26.47
2022-08-22T06:57:35.939Z,26.34
2022-08-22T07:00:08.573Z,26.16
2022-08-22T07:02:42.488Z,25.92
2022-08-22T07:05:36.916Z,25.35
2022-08-22T07:08:15.975Z,26.08
2022-08-22T07:10:45.489Z,26.57
2022-08-22T07:13:19.598Z,26.23
2022-08-22T07:15:54.444Z,25.68
2022-08-22T07:18:25.643Z,26.17
2022-08-22T07:20:57.039Z,26.52
2022-08-22T07:23:48.054Z,25.69
2022-08-22T07:26:25.723Z,26.19
2022-08-22T07:29:10.850Z,26.56
2022-08-22T07:31:53.455Z,26.40
2022-08-22T07:34:44.734Z,27.29
2022-08-22T07:37:39.793Z,27.77
2022-08-22T07:40:41.755Z,28.09
2022-08-22T07:43:20.012Z,28.47
2022-08-22T07:45:58.715Z,28.43
2022-08-22T07:49:13.023Z,28.50
2022-08-22T07:51:50.675Z,28.41
2022-08-22T07:54:27.366Z,28.23
2022-08-22T07:57:00.136Z,28.49
2022-08-22T07:59:28.513Z,28.92
2022-08-22T08:01:58.645Z,29.22
2022-08-22T08:04:38.085Z,29.23
2022-08-22T08:07:10.577Z,27.87
2022-08-22T08:09:50.453Z,28.43
2022-08-22T08:12:21.959Z,29.31
2022-08-22T08:14:53.428Z,29.14
2022-08-22T08:17:23.819Z,29.37
2022-08-22T08:19:51.891Z,28.21
2022-08-22T08:22:26.821Z,27.67
2022-08-22T08:24:59.905Z,27.98
2022-08-22T08:27:57.992Z,28.47
2022-08-22T08:30:36.599Z,29.12
2022-08-22T08:33:24.626Z,29.52
2022-08-22T08:36:03.533Z,29.01
2022-08-22T08:38:57.540Z,29.93
2022-08-22T08:41:47.022Z,29.99
2022-08-22T08:44:27.116Z,30.10
2022-08-22T08:47:20.731Z,29.17
2022-08-22T08:50:10.308Z,28.82
2022-08-22T08:52:58.594Z,29.13
2022-08-22T08:55:30.998Z,29.08
2022-08-22T08:58:03.279Z,29.65
2022-08-22T09:00:45.768Z,30.02
2022-08-22T09:03:54.201Z,29.04
2022-08-22T09:06:45.068Z,29.28
2022-08-22T09:09:38.392Z,29.45
2022-08-22T09:12:15.591Z,29.74
2022-08-22T09:14:44.716Z,30.37
2022-08-22T09:17:17.472Z,29.85
2022-08-22T09:19:59.694Z,29.99
2022-08-22T09:22:52.448Z,30.19
2022-08-22T09:25:27.903Z,30.13
2022-08-22T09:28:23.249Z,30.41
2022-08-22T09:30:58.179Z,30.69
2022-08-22T09:33:35.188Z,30.89
2022-08-22T09:36:19.877Z,30.68
2022-08-22T09:39:09.594Z,30.82
2022-08-22T09:42:06.839Z,30.98
2022-08-22T09:44:40.805Z,31.16
2022-08-22T09:47:35.103Z,30.86
2022-08-22T09:50:13.697Z,30.35
2022-08-22T09:52:54.693Z,30.16
2022-08-22T09:55:44.983Z,30.83
2022-08-22T09:58:15.472Z,31.39
2022-08-22T10:00:55.605Z,30.85
2022-08-22T10:03:24.812Z,30.87
2022-08-22T10:06:02.516Z,30.88
2022-08-22T10:08:39.636Z,30.85
2022-08-22T10:11:28.828Z,30.95
2022-08-22T10:14:43.636Z,31.19
2022-08-22T10:17:21.823Z,31.14
2022-08-22T10:19:59.088Z,30.43
2022-08-22T10:23:05.386Z,31.06
2022-08-22T10:25:42.298Z,31.00
2022-08-22T10:28:32.958Z,30.88
2022-08-22T10:31:05.415Z,30.97
2022-08-22T10:33:39.794Z,31.14
2022-08-22T10:36:59.496Z,30.95
2022-08-22T10:39:32.583Z,31.42
2022-08-22T10:42:23.181Z,31.11
2022-08-22T10:45:12.976Z,31.34
2022-08-22T10:47:52.965Z,30.88
2022-08-22T10:50:32.731Z,30.93
2022-08-22T10:53:23.354Z,30.85
2022-08-22T10:56:04.367Z,31.00
2022-08-22T10:58:38.949Z,30.65
2022-08-22T11:01:37.027Z,31.34
2022-08-22T11:04:46.097Z,30.94
2022-08-22T11:07:41.403Z,30.96
2022-08-22T11:10:34.849Z,31.03
2022-08-22T11:13:42.166Z,31.00
2022-08-22T11:16:24.138Z,31.08
2022-08-22T11:19:15.274Z,31.25
2022-08-22T11:22:00.112Z,31.39
2022-08-22T11:24:35.665Z,31.09
2022-08-22T11:27:17.721Z,31.16
2022-08-22T11:30:18.753Z,30.92
2022-08-22T11:33:10.255Z,31.00
2022-08-22T11:36:15.671Z,30.83
2022-08-22T11:38:54.126Z,31.01
2022-08-22T11:41:36.436Z,31.24
2022-08-22T11:44:07.099Z,30.68
2022-08-22T11:46:44.421Z,30.65
2022-08-22T11:49:26.817Z,30.88
2022-08-22T11:52:17.884Z,31.10
2022-08-22T11:54:59.785Z,31.16
2022-08-22T11:57:41.832Z,31.10
2022-08-22T12:00:20.871Z,31.09
2022-08-22T12:03:26.268Z,31.12
2022-08-22T12:05:58.799Z,30.84
2022-08-22T12:08:51.990Z,30.74
2022-08-22T12:11:33.327Z,30.72
2022-08-22T12:14:11.307Z,30.81
2022-08-22T12:16:59.886Z,30.82
2022-08-22T12:20:12.556Z,30.70
2022-08-22T12:23:00.670Z,30.75
2022-08-22T12:25:56.729Z,30.67
2022-08-22T12:28:36.123Z,30.75
2022-08-22T12:31:34.839Z,30.72
2022-08-22T12:34:20.871Z,30.92
2022-08-22T12:37:15.629Z,31.01
2022-08-22T12:40:17.733Z,30.99
2022-08-22T12:43:14.284Z,30.76
2022-08-22T12:46:13.133Z,30.94
2022-08-22T12:49:13.043Z,30.83
2022-08-22T12:51:59.864Z,31.13
2022-08-22T12:54:48.665Z,31.14
2022-08-22T12:57:27.424Z,30.86
2022-08-22T12:59:59.737Z,30.92
2022-08-22T13:02:34.668Z,30.71
2022-08-22T13:05:20.639Z,30.82
2022-08-22T13:08:17.511Z,30.99
2022-08-22T13:11:01.998Z,31.12
2022-08-22T13:13:37.177Z,31.05
2022-08-22T13:16:08.980Z,31.04
2022-08-22T13:19:07.370Z,30.73
2022-08-22T13:21:43.389Z,30.64
2022-08-22T13:24:16.783Z,30.74
2022-08-22T13:26:51.268Z,30.76
2022-08-22T13:29:42.698Z,30.46
2022-08-22T13:32:23.417Z,30.50
2022-08-22T13:34:56.539Z,30.42
2022-08-22T13:37:29.859Z,30.18
2022-08-22T13:40:02.162Z,30.47
2022-08-22T13:42:31.856Z,30.68
2022-08-22T13:45:04.790Z,30.55
2022-08-22T13:47:35.858Z,30.57
2022-08-22T13:50:14.772Z,30.60
2022-08-22T13:52:52.406Z,30.80
2022-08-22T13:55:35.191Z,30.87
2022-08-22T13:58:11.097Z,30.70
2022-08-22T14:00:57.305Z,30.73
2022-08-22T14:03:35.057Z,30.83
2022-08-22T14:06:35.206Z,30.97
2022-08-22T14:09:09.298Z,30.92
2022-08-22T14:12:00.251Z,30.83
2022-08-22T14:14:32.066Z,31.05
2022-08-22T14:16:59.665Z,30.99
2022-08-22T14:19:32.063Z,30.93
2022-08-22T14:22:32.079Z,30.70
2022-08-22T14:25:18.642Z,30.81
2022-08-22T14:27:56.110Z,30.85
2022-08-22T14:30:28.387Z,30.93
2022-08-22T14:33:18.235Z,31.13
2022-08-22T14:35:52.848Z,30.96
2022-08-22T14:38:35.588Z,31.00
2022-08-22T14:41:55.585Z,30.84
2022-08-22T14:44:31.246Z,30.89
2022-08-22T14:47:03.701Z,31.02
2022-08-22T14:49:48.960Z,31.07
2022-08-22T14:52:36.000Z,31.10
2022-08-22T14:55:08.323Z,31.02
2022-08-22T14:57:41.281Z,30.96
2022-08-22T15:00:13.698Z,31.06
2022-08-22T15:02:41.893Z,30.89
2022-08-22T15:05:19.870Z,30.65
2022-08-22T15:07:56.537Z,30.68
2022-08-22T15:10:33.220Z,30.29
2022-08-22T15:13:07.936Z,30.19
2022-08-22T15:15:41.088Z,30.48
2022-08-22T15:18:28.194Z,30.48
2022-08-22T15:21:12.406Z,30.52
2022-08-22T15:23:45.026Z,30.67
2022-08-22T15:26:23.099Z,30.49
2022-08-22T15:28:57.727Z,30.57
2022-08-22T15:31:24.982Z,30.67
2022-08-22T15:33:52.518Z,30.61
2022-08-22T15:36:26.084Z,30.50
2022-08-22T15:38:56.607Z,30.47
2022-08-22T15:41:36.135Z,30.65
2022-08-22T15:44:14.818Z,30.86
2022-08-22T15:46:57.679Z,31.01
2022-08-22T15:49:27.785Z,30.83
2022-08-22T15:52:03.465Z,30.97
2022-08-22T15:54:51.258Z,31.08
2022-08-22T15:57:31.865Z,30.89
2022-08-22T16:00:00.159Z,30.74
2022-08-22T16:02:53.191Z,30.77
2022-08-22T16:05:36.078Z,30.84
2022-08-22T16:08:25.866Z,30.98
2022-08-22T16:11:14.236Z,30.74
2022-08-22T16:13:44.223Z,30.60
2022-08-22T16:16:42.979Z,30.65
2022-08-22T16:19:17.307Z,30.78
2022-08-22T16:21:43.773Z,30.82
2022-08-22T16:24:10.209Z,30.78
2022-08-22T16:26:39.739Z,30.51
2022-08-22T16:29:17.538Z,30.46
2022-08-22T16:31:44.653Z,30.65
2022-08-22T16:34:17.313Z,30.77
2022-08-22T16:37:08.280Z,30.68
2022-08-22T16:39:41.087Z,30.73
2022-08-22T16:42:13.671Z,30.64
2022-08-22T16:44:47.383Z,30.70
2022-08-22T16:47:19.196Z,30.50
2022-08-22T16:49:51.674Z,30.62
2022-08-22T16:52:24.107Z,30.61
2022-08-22T16:55:01.341Z,30.62
2022-08-22T16:58:09.620Z,30.56
2022-08-22T17:00:36.378Z,30.61
2022-08-22T17:03:21.470Z,30.50
2022-08-22T17:05:56.794Z,30.36
2022-08-22T17:08:47.325Z,30.35
2022-08-22T17:11:51.399Z,30.34
2022-08-22T17:14:48.939Z,30.44
2022-08-22T17:17:24.520Z,30.46
2022-08-22T17:20:08.015Z,30.43
2022-08-22T17:22:58.054Z,30.37
2022-08-22T17:25:31.080Z,30.14
2022-08-22T17:28:34.326Z,30.00
2022-08-22T17:31:12.880Z,29.95
2022-08-22T17:33:52.056Z,29.99
2022-08-22T17:36:34.212Z,29.68
2022-08-22T17:39:32.255Z,29.50
2022-08-22T17:42:20.876Z,29.62
2022-08-22T17:45:05.848Z,29.56
2022-08-22T17:47:41.434Z,29.27
2022-08-22T17:50:18.785Z,29.25
2022-08-22T17:52:51.035Z,29.27
2022-08-22T17:55:52.626Z,29.12
2022-08-22T17:58:37.969Z,29.08
2022-08-22T18:01:35.240Z,28.89
2022-08-22T18:04:06.424Z,28.84
2022-08-22T18:06:47.037Z,28.78
2022-08-22T18:09:46.319Z,28.75
2022-08-22T18:12:39.373Z,28.56
2022-08-22T18:15:13.788Z,28.63
2022-08-22T18:17:51.730Z,28.51
2022-08-22T18:20:37.721Z,28.56
2022-08-22T18:23:21.805Z,28.47
2022-08-22T18:26:15.719Z,28.39
2022-08-22T18:29:20.110Z,28.35
2022-08-22T18:32:05.228Z,28.31
2022-08-22T18:34:51.151Z,28.09
2022-08-22T18:37:32.940Z,28.03
2022-08-22T18:40:11.250Z,27.95
2022-08-22T18:43:18.236Z,27.85
2022-08-22T18:45:47.506Z,27.91
2022-08-22T18:48:31.695Z,28.05
2022-08-22T18:51:24.287Z,27.97
2022-08-22T18:53:54.260Z,27.92
2022-08-22T18:56:42.479Z,27.65
2022-08-22T18:59:42.974Z,27.56
2022-08-22T19:02:21.520Z,27.52
2022-08-22T19:04:57.306Z,27.58
2022-08-22T19:07:42.345Z,27.50
2022-08-22T19:11:00.207Z,27.49
2022-08-22T19:14:08.412Z,27.51
2022-08-22T19:16:46.824Z,27.56
2022-08-22T19:19:17.296Z,27.48
2022-08-22T19:22:21.818Z,27.27
2022-08-22T19:25:12.533Z,27.21
2022-08-22T19:27:44.648Z,27.11
2022-08-22T19:30:34.429Z,27.15
2022-08-22T19:33:08.751Z,27.14
2022-08-22T19:35:49.631Z,27.15
2022-08-22T19:38:54.123Z,27.09
2022-08-22T19:41:58.484Z,26.90
2022-08-22T19:45:00.409Z,26.89
2022-08-22T19:47:49.908Z,26.91
2022-08-22T19:50:16.378Z,26.94
2022-08-22T19:52:56.851Z,26.90
2022-08-22T19:55:26.661Z,27.07
2022-08-22T19:58:03.974Z,26.92
2022-08-22T20:01:07.326Z,26.68
2022-08-22T20:03:53.474Z,26.65
2022-08-22T20:06:45.071Z,26.65
2022-08-22T20:09:30.175Z,26.68
2022-08-22T20:12:15.484Z,26.89
2022-08-22T20:14:46.172Z,26.55
2022-08-22T20:17:24.977Z,26.56
2022-08-22T20:22:45.341Z,26.50
2022-08-22T20:25:43.006Z,26.37
2022-08-22T20:28:29.721Z,26.38
2022-08-22T20:31:00.025Z,26.24
2022-08-22T20:33:40.021Z,26.09
2022-08-22T20:36:27.293Z,25.96
2022-08-22T20:39:02.120Z,25.88
2022-08-22T20:41:34.262Z,25.92
2022-08-22T20:44:17.212Z,26.03
2022-08-22T20:46:57.537Z,26.05
2022-08-22T20:49:32.030Z,26.03
2022-08-22T20:52:08.029Z,25.76
2022-08-22T20:54:38.067Z,26.33
2022-08-22T20:57:16.194Z,26.00
2022-08-22T20:59:50.739Z,26.01
2022-08-22T21:02:49.701Z,25.84
2022-08-22T21:05:18.331Z,25.66
2022-08-22T21:07:47.663Z,25.63
2022-08-22T21:10:37.566Z,25.57
2022-08-22T21:13:08.707Z,25.54
2022-08-22T21:15:58.587Z,25.48
2022-08-22T21:18:45.954Z,25.35
2022-08-22T21:21:31.000Z,25.36
2022-08-22T21:24:01.406Z,25.29
2022-08-22T21:26:39.223Z,25.45
2022-08-22T21:29:19.188Z,25.36
2022-08-22T21:31:49.928Z,25.33
2022-08-22T21:34:24.354Z,25.17
2022-08-22T21:36:53.189Z,25.16
2022-08-22T21:39:22.524Z,25.20
2022-08-22T21:42:10.084Z,24.99
2022-08-22T21:44:40.471Z,25.13
2022-08-22T21:47:30.957Z,24.96
2022-08-22T21:49:59.272Z,24.93
2022-08-22T21:52:27.336Z,24.92
2022-08-22T21:54:53.940Z,24.82
2022-08-22T21:57:34.478Z,24.83
2022-08-22T22:00:01.707Z,24.71
2022-08-22T22:02:31.145Z,24.91
2022-08-22T22:04:58.776Z,24.81
2022-08-22T22:07:26.962Z,24.95
2022-08-22T22:09:54.985Z,24.94
2022-08-22T22:12:23.390Z,25.05
2022-08-22T22:14:50.337Z,25.02
2022-08-22T22:17:18.899Z,24.87
2022-08-22T22:19:46.856Z,24.86
2022-08-22T22:22:13.507Z,24.83
2022-08-22T22:24:40.101Z,24.92
2022-08-22T22:27:07.201Z,24.85
2022-08-22T22:29:34.718Z,24.80
2022-08-22T22:32:01.400Z,24.72
2022-08-22T22:34:27.943Z,24.71
2022-08-22T22:36:54.946Z,24.56
2022-08-22T22:39:21.761Z,24.58
2022-08-22T22:41:49.061Z,24.63
2022-08-22T22:44:15.771Z,24.56
2022-08-22T22:46:42.312Z,24.64
2022-08-22T22:49:08.850Z,25.16
2022-08-22T22:51:35.381Z,25.65
2022-08-22T22:54:01.856Z,25.10
2022-08-22T22:56:28.569Z,24.48
2022-08-22T22:58:59.069Z,24.27
2022-08-22T23:01:27.885Z,24.18
2022-08-22T23:04:03.252Z,24.18
2022-08-22T23:06:33.083Z,24.16
2022-08-22T23:08:59.728Z,24.20
2022-08-22T23:11:30.961Z,24.21
2022-08-22T23:13:57.601Z,24.28
2022-08-22T23:16:27.888Z,24.19
2022-08-22T23:18:55.257Z,24.21
2022-08-22T23:21:26.467Z,24.18
2022-08-22T23:23:56.134Z,24.20
2022-08-22T23:26:22.825Z,24.20
2022-08-22T23:28:49.453Z,24.12
2022-08-22T23:31:40.981Z,24.07
2022-08-22T23:34:13.753Z,24.00
2022-08-22T23:36:43.778Z,24.01
2022-08-22T23:39:10.963Z,24.00
2022-08-22T23:41:38.317Z,24.08
2022-08-22T23:44:07.026Z,24.38
2022-08-22T23:46:35.995Z,24.23
2022-08-22T23:49:04.154Z,23.97
2022-08-22T23:51:31.015Z,23.93
2022-08-22T23:53:59.250Z,24.04
2022-08-22T23:56:27.794Z,23.91
2022-08-22T23:58:54.385Z,24.04
